sensor_id;sensor_type;location;lat;lon;timestamp;pressure;altitude;pressure_sealevel;temperature
66403;BMP180;53212;52.112;5.144;2023-03-01T00:01:50;103187.00;;;-0.60
66403;BMP180;53212;52.112;5.144;2023-03-01T00:04:15;103191.80;;;-0.60
66403;BMP180;53212;52.112;5.144;2023-03-01T00:06:43;103191.20;;;-0.60
66403;BMP180;53212;52.112;5.144;2023-03-01T00:09:12;103192.40;;;-0.60
66403;BMP180;53212;52.112;5.144;2023-03-01T00:11:38;103186.60;;;-0.60
66403;BMP180;53212;52.112;5.144;2023-03-01T00:14:04;103187.20;;;-0.60
66403;BMP180;53212;52.112;5.144;2023-03-01T00:16:41;103185.60;;;-0.70
66403;BMP180;53212;52.112;5.144;2023-03-01T00:19:14;103188.20;;;-0.70
66403;BMP180;53212;52.112;5.144;2023-03-01T00:21:40;103187.80;;;-0.70
66403;BMP180;53212;52.112;5.144;2023-03-01T00:24:06;103184.80;;;-0.70
66403;BMP180;53212;52.112;5.144;2023-03-01T00:26:32;103186.80;;;-0.80
66403;BMP180;53212;52.112;5.144;2023-03-01T00:28:58;103180.00;;;-0.80
66403;BMP180;53212;52.112;5.144;2023-03-01T00:31:30;103185.00;;;-0.84
66403;BMP180;53212;52.112;5.144;2023-03-01T00:34:00;103183.60;;;-0.90
66403;BMP180;53212;52.112;5.144;2023-03-01T00:36:30;103170.80;;;-0.90
66403;BMP180;53212;52.112;5.144;2023-03-01T00:38:56;103166.80;;;-0.90
66403;BMP180;53212;52.112;5.144;2023-03-01T00:41:22;103174.20;;;-0.90
66403;BMP180;53212;52.112;5.144;2023-03-01T00:43:49;103173.40;;;-0.88
66403;BMP180;53212;52.112;5.144;2023-03-01T00:46:18;103167.40;;;-0.88
66403;BMP180;53212;52.112;5.144;2023-03-01T00:48:45;103171.60;;;-0.84
66403;BMP180;53212;52.112;5.144;2023-03-01T00:51:18;103177.20;;;-0.80
66403;BMP180;53212;52.112;5.144;2023-03-01T00:53:44;103176.20;;;-0.80
66403;BMP180;53212;52.112;5.144;2023-03-01T00:56:13;103172.20;;;-0.86
66403;BMP180;53212;52.112;5.144;2023-03-01T00:58:39;103167.40;;;-0.90
66403;BMP180;53212;52.112;5.144;2023-03-01T01:01:14;103164.00;;;-1.00
66403;BMP180;53212;52.112;5.144;2023-03-01T01:03:50;103165.20;;;-1.08
66403;BMP180;53212;52.112;5.144;2023-03-01T01:06:19;103169.20;;;-1.10
66403;BMP180;53212;52.112;5.144;2023-03-01T01:08:46;103165.20;;;-1.20
66403;BMP180;53212;52.112;5.144;2023-03-01T01:11:12;103164.80;;;-1.20
66403;BMP180;53212;52.112;5.144;2023-03-01T01:13:39;103166.60;;;-1.20
66403;BMP180;53212;52.112;5.144;2023-03-01T01:16:05;103160.00;;;-1.24
66403;BMP180;53212;52.112;5.144;2023-03-01T01:18:31;103159.60;;;-1.28
66403;BMP180;53212;52.112;5.144;2023-03-01T01:20:57;103152.80;;;-1.30
66403;BMP180;53212;52.112;5.144;2023-03-01T01:23:22;103145.40;;;-1.30
66403;BMP180;53212;52.112;5.144;2023-03-01T01:25:47;103142.00;;;-1.38
66403;BMP180;53212;52.112;5.144;2023-03-01T01:28:13;103135.40;;;-1.30
66403;BMP180;53212;52.112;5.144;2023-03-01T01:30:38;103141.20;;;-1.40
66403;BMP180;53212;52.112;5.144;2023-03-01T01:33:04;103133.40;;;-1.40
66403;BMP180;53212;52.112;5.144;2023-03-01T01:35:29;103129.00;;;-1.50
66403;BMP180;53212;52.112;5.144;2023-03-01T01:37:54;103127.40;;;-1.50
66403;BMP180;53212;52.112;5.144;2023-03-01T01:40:20;103125.20;;;-1.54
66403;BMP180;53212;52.112;5.144;2023-03-01T01:42:45;103117.20;;;-1.60
66403;BMP180;53212;52.112;5.144;2023-03-01T01:45:35;103115.40;;;-1.60
66403;BMP180;53212;52.112;5.144;2023-03-01T01:48:09;103122.60;;;-1.60
66403;BMP180;53212;52.112;5.144;2023-03-01T01:50:38;103121.40;;;-1.60
66403;BMP180;53212;52.112;5.144;2023-03-01T01:53:25;103112.20;;;-1.60
66403;BMP180;53212;52.112;5.144;2023-03-01T01:55:58;103114.60;;;-1.60
66403;BMP180;53212;52.112;5.144;2023-03-01T01:58:27;103116.20;;;-1.64
66403;BMP180;53212;52.112;5.144;2023-03-01T02:00:54;103106.80;;;-1.60
66403;BMP180;53212;52.112;5.144;2023-03-01T02:03:28;103102.20;;;-1.60
66403;BMP180;53212;52.112;5.144;2023-03-01T02:06:13;103113.80;;;-1.60
66403;BMP180;53212;52.112;5.144;2023-03-01T02:08:41;103103.60;;;-1.64
66403;BMP180;53212;52.112;5.144;2023-03-01T02:11:08;103104.80;;;-1.70
66403;BMP180;53212;52.112;5.144;2023-03-01T02:13:35;103102.80;;;-1.70
66403;BMP180;53212;52.112;5.144;2023-03-01T02:16:08;103099.40;;;-1.70
66403;BMP180;53212;52.112;5.144;2023-03-01T02:18:34;103099.60;;;-1.70
66403;BMP180;53212;52.112;5.144;2023-03-01T02:21:41;103101.20;;;-1.70
66403;BMP180;53212;52.112;5.144;2023-03-01T02:24:40;103102.60;;;-1.72
66403;BMP180;53212;52.112;5.144;2023-03-01T02:27:11;103104.60;;;-1.70
66403;BMP180;53212;52.112;5.144;2023-03-01T02:29:37;103096.00;;;-1.80
66403;BMP180;53212;52.112;5.144;2023-03-01T02:32:03;103097.40;;;-1.80
66403;BMP180;53212;52.112;5.144;2023-03-01T02:34:30;103096.20;;;-1.80
66403;BMP180;53212;52.112;5.144;2023-03-01T02:37:12;103096.00;;;-1.82
66403;BMP180;53212;52.112;5.144;2023-03-01T02:39:44;103094.60;;;-1.90
66403;BMP180;53212;52.112;5.144;2023-03-01T02:42:22;103094.20;;;-1.88
66403;BMP180;53212;52.112;5.144;2023-03-01T02:44:49;103094.00;;;-1.90
66403;BMP180;53212;52.112;5.144;2023-03-01T02:47:15;103081.40;;;-2.00
66403;BMP180;53212;52.112;5.144;2023-03-01T02:49:40;103076.40;;;-2.00
66403;BMP180;53212;52.112;5.144;2023-03-01T02:52:27;103072.20;;;-2.04
66403;BMP180;53212;52.112;5.144;2023-03-01T02:55:16;103067.80;;;-2.10
66403;BMP180;53212;52.112;5.144;2023-03-01T02:57:45;103066.60;;;-2.16
66403;BMP180;53212;52.112;5.144;2023-03-01T03:00:24;103067.20;;;-2.10
66403;BMP180;53212;52.112;5.144;2023-03-01T03:02:53;103063.40;;;-2.20
66403;BMP180;53212;52.112;5.144;2023-03-01T03:05:28;103065.40;;;-2.20
66403;BMP180;53212;52.112;5.144;2023-03-01T03:07:54;103067.80;;;-2.20
66403;BMP180;53212;52.112;5.144;2023-03-01T03:10:29;103064.20;;;-2.10
66403;BMP180;53212;52.112;5.144;2023-03-01T03:12:58;103060.60;;;-2.20
66403;BMP180;53212;52.112;5.144;2023-03-01T03:15:26;103064.00;;;-2.20
66403;BMP180;53212;52.112;5.144;2023-03-01T03:17:53;103065.20;;;-2.10
66403;BMP180;53212;52.112;5.144;2023-03-01T03:20:23;103066.00;;;-2.10
66403;BMP180;53212;52.112;5.144;2023-03-01T03:22:53;103057.00;;;-2.10
66403;BMP180;53212;52.112;5.144;2023-03-01T03:25:20;103057.20;;;-2.10
66403;BMP180;53212;52.112;5.144;2023-03-01T03:27:48;103055.20;;;-2.20
66403;BMP180;53212;52.112;5.144;2023-03-01T03:30:18;103056.40;;;-2.20
66403;BMP180;53212;52.112;5.144;2023-03-01T03:32:46;103045.60;;;-2.30
66403;BMP180;53212;52.112;5.144;2023-03-01T03:37:48;103043.20;;;-2.46
66403;BMP180;53212;52.112;5.144;2023-03-01T03:40:36;103037.00;;;-2.50
66403;BMP180;53212;52.112;5.144;2023-03-01T03:43:05;103039.60;;;-2.50
66403;BMP180;53212;52.112;5.144;2023-03-01T03:45:31;103038.40;;;-2.50
66403;BMP180;53212;52.112;5.144;2023-03-01T03:47:59;103036.60;;;-2.52
66403;BMP180;53212;52.112;5.144;2023-03-01T03:50:26;103037.80;;;-2.60
66403;BMP180;53212;52.112;5.144;2023-03-01T03:52:51;103038.20;;;-2.60
66403;BMP180;53212;52.112;5.144;2023-03-01T03:55:17;103035.80;;;-2.60
66403;BMP180;53212;52.112;5.144;2023-03-01T03:57:47;103036.40;;;-2.68
66403;BMP180;53212;52.112;5.144;2023-03-01T04:00:20;103029.60;;;-2.70
66403;BMP180;53212;52.112;5.144;2023-03-01T04:02:46;103031.20;;;-2.80
66403;BMP180;53212;52.112;5.144;2023-03-01T04:05:14;103022.40;;;-2.80
66403;BMP180;53212;52.112;5.144;2023-03-01T04:07:41;103025.80;;;-2.80
66403;BMP180;53212;52.112;5.144;2023-03-01T04:10:12;103023.80;;;-2.80
66403;BMP180;53212;52.112;5.144;2023-03-01T04:12:37;103024.80;;;-2.80
66403;BMP180;53212;52.112;5.144;2023-03-01T04:15:07;103032.20;;;-2.70
66403;BMP180;53212;52.112;5.144;2023-03-01T04:17:46;103031.60;;;-2.70
66403;BMP180;53212;52.112;5.144;2023-03-01T04:20:18;103027.80;;;-2.80
66403;BMP180;53212;52.112;5.144;2023-03-01T04:22:57;103034.00;;;-2.90
66403;BMP180;53212;52.112;5.144;2023-03-01T04:25:23;103031.40;;;-2.90
66403;BMP180;53212;52.112;5.144;2023-03-01T04:27:48;103033.40;;;-2.90
66403;BMP180;53212;52.112;5.144;2023-03-01T04:30:14;103030.20;;;-2.90
66403;BMP180;53212;52.112;5.144;2023-03-01T04:32:40;103027.20;;;-2.90
66403;BMP180;53212;52.112;5.144;2023-03-01T04:35:06;103033.00;;;-2.90
66403;BMP180;53212;52.112;5.144;2023-03-01T04:37:31;103030.40;;;-2.90
66403;BMP180;53212;52.112;5.144;2023-03-01T04:39:57;103036.80;;;-2.90
66403;BMP180;53212;52.112;5.144;2023-03-01T04:42:22;103039.40;;;-2.90
66403;BMP180;53212;52.112;5.144;2023-03-01T04:44:48;103039.80;;;-3.00
66403;BMP180;53212;52.112;5.144;2023-03-01T04:47:16;103030.60;;;-3.00
66403;BMP180;53212;52.112;5.144;2023-03-01T04:49:42;103027.40;;;-3.00
66403;BMP180;53212;52.112;5.144;2023-03-01T04:52:08;103024.80;;;-3.10
66403;BMP180;53212;52.112;5.144;2023-03-01T04:54:35;103019.40;;;-3.10
66403;BMP180;53212;52.112;5.144;2023-03-01T04:57:02;103016.40;;;-3.10
66403;BMP180;53212;52.112;5.144;2023-03-01T04:59:28;103013.40;;;-3.10
66403;BMP180;53212;52.112;5.144;2023-03-01T05:01:55;103007.80;;;-3.10
66403;BMP180;53212;52.112;5.144;2023-03-01T05:04:24;103008.00;;;-3.10
66403;BMP180;53212;52.112;5.144;2023-03-01T05:06:50;103004.20;;;-3.20
66403;BMP180;53212;52.112;5.144;2023-03-01T05:09:16;102995.00;;;-3.10
66403;BMP180;53212;52.112;5.144;2023-03-01T05:11:42;102998.60;;;-3.10
66403;BMP180;53212;52.112;5.144;2023-03-01T05:14:09;103001.60;;;-3.16
66403;BMP180;53212;52.112;5.144;2023-03-01T05:16:35;102992.00;;;-3.20
66403;BMP180;53212;52.112;5.144;2023-03-01T05:19:03;102993.20;;;-3.20
66403;BMP180;53212;52.112;5.144;2023-03-01T05:21:41;102990.60;;;-3.20
66403;BMP180;53212;52.112;5.144;2023-03-01T05:24:25;102988.40;;;-3.30
66403;BMP180;53212;52.112;5.144;2023-03-01T05:26:52;102987.40;;;-3.30
66403;BMP180;53212;52.112;5.144;2023-03-01T05:29:20;102981.60;;;-3.30
66403;BMP180;53212;52.112;5.144;2023-03-01T05:31:54;102976.60;;;-3.30
66403;BMP180;53212;52.112;5.144;2023-03-01T05:34:32;102970.60;;;-3.20
66403;BMP180;53212;52.112;5.144;2023-03-01T05:36:58;102965.80;;;-3.20
66403;BMP180;53212;52.112;5.144;2023-03-01T05:39:26;102963.40;;;-3.10
66403;BMP180;53212;52.112;5.144;2023-03-01T05:41:54;102961.20;;;-3.10
66403;BMP180;53212;52.112;5.144;2023-03-01T05:44:20;102961.80;;;-3.02
66403;BMP180;53212;52.112;5.144;2023-03-01T05:46:46;102956.60;;;-3.00
66403;BMP180;53212;52.112;5.144;2023-03-01T05:49:13;102952.60;;;-3.00
66403;BMP180;53212;52.112;5.144;2023-03-01T05:51:40;102952.20;;;-3.00
66403;BMP180;53212;52.112;5.144;2023-03-01T05:54:07;102944.20;;;-3.10
66403;BMP180;53212;52.112;5.144;2023-03-01T05:56:37;102944.80;;;-3.14
66403;BMP180;53212;52.112;5.144;2023-03-01T05:59:04;102945.00;;;-3.20
66403;BMP180;53212;52.112;5.144;2023-03-01T06:01:34;102948.60;;;-3.20
66403;BMP180;53212;52.112;5.144;2023-03-01T06:04:00;102950.00;;;-3.20
66403;BMP180;53212;52.112;5.144;2023-03-01T06:06:26;102946.80;;;-3.20
66403;BMP180;53212;52.112;5.144;2023-03-01T06:08:52;102948.40;;;-3.20
66403;BMP180;53212;52.112;5.144;2023-03-01T06:11:18;102946.60;;;-3.18
66403;BMP180;53212;52.112;5.144;2023-03-01T06:13:45;102950.40;;;-3.18
66403;BMP180;53212;52.112;5.144;2023-03-01T06:16:10;102949.20;;;-3.10
66403;BMP180;53212;52.112;5.144;2023-03-01T06:18:37;102947.00;;;-3.10
66403;BMP180;53212;52.112;5.144;2023-03-01T06:21:04;102942.60;;;-3.16
66403;BMP180;53212;52.112;5.144;2023-03-01T06:23:30;102941.40;;;-3.20
66403;BMP180;53212;52.112;5.144;2023-03-01T06:25:55;102947.60;;;-3.20
66403;BMP180;53212;52.112;5.144;2023-03-01T06:28:21;102951.40;;;-3.20
66403;BMP180;53212;52.112;5.144;2023-03-01T06:30:48;102954.80;;;-3.20
66403;BMP180;53212;52.112;5.144;2023-03-01T06:33:13;102954.80;;;-3.28
66403;BMP180;53212;52.112;5.144;2023-03-01T06:35:39;102959.80;;;-3.20
66403;BMP180;53212;52.112;5.144;2023-03-01T06:38:05;102958.80;;;-3.20
66403;BMP180;53212;52.112;5.144;2023-03-01T06:40:31;102956.60;;;-3.10
66403;BMP180;53212;52.112;5.144;2023-03-01T06:42:57;102952.20;;;-3.10
66403;BMP180;53212;52.112;5.144;2023-03-01T06:45:23;102952.80;;;-3.10
66403;BMP180;53212;52.112;5.144;2023-03-01T06:47:50;102955.60;;;-3.00
66403;BMP180;53212;52.112;5.144;2023-03-01T06:50:17;102957.80;;;-2.90
66403;BMP180;53212;52.112;5.144;2023-03-01T06:52:43;102954.80;;;-2.80
66403;BMP180;53212;52.112;5.144;2023-03-01T06:55:11;102952.40;;;-2.70
66403;BMP180;53212;52.112;5.144;2023-03-01T06:57:37;102953.00;;;-2.60
66403;BMP180;53212;52.112;5.144;2023-03-01T07:00:04;102961.00;;;-2.54
66403;BMP180;53212;52.112;5.144;2023-03-01T07:02:31;102958.80;;;-2.50
66403;BMP180;53212;52.112;5.144;2023-03-01T07:04:56;102957.40;;;-2.46
66403;BMP180;53212;52.112;5.144;2023-03-01T07:07:22;102953.60;;;-2.40
66403;BMP180;53212;52.112;5.144;2023-03-01T07:09:49;102947.60;;;-2.40
66403;BMP180;53212;52.112;5.144;2023-03-01T07:12:14;102948.60;;;-2.40
66403;BMP180;53212;52.112;5.144;2023-03-01T07:14:40;102950.40;;;-2.30
66403;BMP180;53212;52.112;5.144;2023-03-01T07:17:06;102953.00;;;-2.30
66403;BMP180;53212;52.112;5.144;2023-03-01T07:19:31;102953.40;;;-2.30
66403;BMP180;53212;52.112;5.144;2023-03-01T07:21:57;102956.20;;;-2.20
66403;BMP180;53212;52.112;5.144;2023-03-01T07:24:22;102956.20;;;-2.10
66403;BMP180;53212;52.112;5.144;2023-03-01T07:26:49;102957.00;;;-2.10
66403;BMP180;53212;52.112;5.144;2023-03-01T07:29:16;102963.40;;;-2.00
66403;BMP180;53212;52.112;5.144;2023-03-01T07:31:41;102967.60;;;-1.90
66403;BMP180;53212;52.112;5.144;2023-03-01T07:34:07;102970.40;;;-1.80
66403;BMP180;53212;52.112;5.144;2023-03-01T07:36:32;102970.80;;;-1.80
66403;BMP180;53212;52.112;5.144;2023-03-01T07:38:58;102968.00;;;-1.70
66403;BMP180;53212;52.112;5.144;2023-03-01T07:41:23;102973.00;;;-1.70
66403;BMP180;53212;52.112;5.144;2023-03-01T07:43:49;102971.00;;;-1.60
66403;BMP180;53212;52.112;5.144;2023-03-01T07:46:14;102970.60;;;-1.50
66403;BMP180;53212;52.112;5.144;2023-03-01T07:48:40;102969.60;;;-1.40
66403;BMP180;53212;52.112;5.144;2023-03-01T07:51:06;102971.40;;;-1.36
66403;BMP180;53212;52.112;5.144;2023-03-01T07:53:32;102967.60;;;-1.30
66403;BMP180;53212;52.112;5.144;2023-03-01T07:56:11;102969.80;;;-1.20
66403;BMP180;53212;52.112;5.144;2023-03-01T07:58:41;102970.20;;;-1.10
66403;BMP180;53212;52.112;5.144;2023-03-01T08:01:10;102968.60;;;-1.04
66403;BMP180;53212;52.112;5.144;2023-03-01T08:03:37;102969.80;;;-1.00
66403;BMP180;53212;52.112;5.144;2023-03-01T08:06:05;102974.20;;;-0.90
66403;BMP180;53212;52.112;5.144;2023-03-01T08:08:32;102973.20;;;-0.88
66403;BMP180;53212;52.112;5.144;2023-03-01T08:11:02;102975.60;;;-0.80
66403;BMP180;53212;52.112;5.144;2023-03-01T08:13:29;102978.60;;;-0.70
66403;BMP180;53212;52.112;5.144;2023-03-01T08:15:59;102971.40;;;-0.70
66403;BMP180;53212;52.112;5.144;2023-03-01T08:18:25;102972.60;;;-0.60
66403;BMP180;53212;52.112;5.144;2023-03-01T08:20:50;102969.20;;;-0.50
66403;BMP180;53212;52.112;5.144;2023-03-01T08:23:16;102968.60;;;-0.50
66403;BMP180;53212;52.112;5.144;2023-03-01T08:25:41;102962.60;;;-0.40
66403;BMP180;53212;52.112;5.144;2023-03-01T08:28:07;102969.00;;;-0.36
66403;BMP180;53212;52.112;5.144;2023-03-01T08:30:32;102964.20;;;-0.30
66403;BMP180;53212;52.112;5.144;2023-03-01T08:32:58;102957.40;;;-0.20
66403;BMP180;53212;52.112;5.144;2023-03-01T08:35:23;102958.60;;;-0.10
66403;BMP180;53212;52.112;5.144;2023-03-01T08:37:49;102965.00;;;0.00
66403;BMP180;53212;52.112;5.144;2023-03-01T08:40:14;102963.60;;;0.10
66403;BMP180;53212;52.112;5.144;2023-03-01T08:42:41;102958.80;;;0.20
66403;BMP180;53212;52.112;5.144;2023-03-01T08:45:09;102958.80;;;0.20
66403;BMP180;53212;52.112;5.144;2023-03-01T08:47:35;102962.20;;;0.30
66403;BMP180;53212;52.112;5.144;2023-03-01T08:50:00;102954.40;;;0.40
66403;BMP180;53212;52.112;5.144;2023-03-01T08:52:26;102947.60;;;0.50
66403;BMP180;53212;52.112;5.144;2023-03-01T08:54:52;102950.00;;;0.60
66403;BMP180;53212;52.112;5.144;2023-03-01T08:57:18;102950.20;;;0.70
66403;BMP180;53212;52.112;5.144;2023-03-01T08:59:43;102950.40;;;0.74
66403;BMP180;53212;52.112;5.144;2023-03-01T09:02:16;102952.60;;;0.82
66403;BMP180;53212;52.112;5.144;2023-03-01T09:04:41;102947.20;;;1.00
66403;BMP180;53212;52.112;5.144;2023-03-01T09:07:08;102942.00;;;1.08
66403;BMP180;53212;52.112;5.144;2023-03-01T09:09:34;102941.40;;;1.10
66403;BMP180;53212;52.112;5.144;2023-03-01T09:11:59;102934.20;;;1.24
66403;BMP180;53212;52.112;5.144;2023-03-01T09:14:25;102932.20;;;1.38
66403;BMP180;53212;52.112;5.144;2023-03-01T09:16:51;102925.40;;;1.40
66403;BMP180;53212;52.112;5.144;2023-03-01T09:19:16;102926.40;;;1.52
66403;BMP180;53212;52.112;5.144;2023-03-01T09:21:42;102916.80;;;1.60
66403;BMP180;53212;52.112;5.144;2023-03-01T09:24:18;102912.20;;;1.70
66403;BMP180;53212;52.112;5.144;2023-03-01T09:26:44;102912.00;;;1.80
66403;BMP180;53212;52.112;5.144;2023-03-01T09:29:13;102909.60;;;1.90
66403;BMP180;53212;52.112;5.144;2023-03-01T09:31:39;102909.60;;;2.00
66403;BMP180;53212;52.112;5.144;2023-03-01T09:34:05;102903.00;;;2.10
66403;BMP180;53212;52.112;5.144;2023-03-01T09:36:31;102906.00;;;2.20
66403;BMP180;53212;52.112;5.144;2023-03-01T09:38:57;102903.20;;;2.30
66403;BMP180;53212;52.112;5.144;2023-03-01T09:42:02;102895.80;;;2.36
66403;BMP180;53212;52.112;5.144;2023-03-01T09:44:38;102902.60;;;2.48
66403;BMP180;53212;52.112;5.144;2023-03-01T09:47:09;102903.20;;;2.60
66403;BMP180;53212;52.112;5.144;2023-03-01T09:49:41;102901.60;;;2.60
66403;BMP180;53212;52.112;5.144;2023-03-01T09:52:43;102893.40;;;2.70
66403;BMP180;53212;52.112;5.144;2023-03-01T09:55:26;102898.80;;;2.82
66403;BMP180;53212;52.112;5.144;2023-03-01T09:58:19;102902.80;;;2.90
66403;BMP180;53212;52.112;5.144;2023-03-01T10:00:50;102904.00;;;3.00
66403;BMP180;53212;52.112;5.144;2023-03-01T10:03:36;102901.60;;;3.00
66403;BMP180;53212;52.112;5.144;2023-03-01T10:06:13;102905.60;;;3.14
66403;BMP180;53212;52.112;5.144;2023-03-01T10:08:48;102898.40;;;3.20
66403;BMP180;53212;52.112;5.144;2023-03-01T10:11:36;102909.00;;;3.30
66403;BMP180;53212;52.112;5.144;2023-03-01T10:14:30;102900.00;;;3.40
66403;BMP180;53212;52.112;5.144;2023-03-01T10:17:12;102899.60;;;3.50
66403;BMP180;53212;52.112;5.144;2023-03-01T10:19:44;102896.80;;;3.60
66403;BMP180;53212;52.112;5.144;2023-03-01T10:22:16;102887.40;;;3.60
66403;BMP180;53212;52.112;5.144;2023-03-01T10:24:43;102887.60;;;3.70
66403;BMP180;53212;52.112;5.144;2023-03-01T10:27:26;102886.00;;;3.80
66403;BMP180;53212;52.112;5.144;2023-03-01T10:32:53;102875.80;;;3.90
66403;BMP180;53212;52.112;5.144;2023-03-01T10:35:27;102873.80;;;4.00
66403;BMP180;53212;52.112;5.144;2023-03-01T10:38:04;102876.60;;;4.02
66403;BMP180;53212;52.112;5.144;2023-03-01T10:40:32;102877.20;;;4.10
66403;BMP180;53212;52.112;5.144;2023-03-01T10:43:01;102873.00;;;4.20
66403;BMP180;53212;52.112;5.144;2023-03-01T10:48:24;102870.40;;;4.20
66403;BMP180;53212;52.112;5.144;2023-03-01T10:51:04;102869.80;;;4.30
66403;BMP180;53212;52.112;5.144;2023-03-01T10:53:40;102867.80;;;4.30
66403;BMP180;53212;52.112;5.144;2023-03-01T10:56:12;102857.80;;;4.40
66403;BMP180;53212;52.112;5.144;2023-03-01T10:59:17;102858.60;;;4.40
66403;BMP180;53212;52.112;5.144;2023-03-01T11:01:44;102842.20;;;4.50
66403;BMP180;53212;52.112;5.144;2023-03-01T11:04:13;102839.00;;;4.60
66403;BMP180;53212;52.112;5.144;2023-03-01T11:06:41;102827.40;;;4.70
66403;BMP180;53212;52.112;5.144;2023-03-01T11:09:20;102829.60;;;4.70
66403;BMP180;53212;52.112;5.144;2023-03-01T11:11:46;102824.40;;;4.80
66403;BMP180;53212;52.112;5.144;2023-03-01T11:14:18;102812.00;;;4.88
66403;BMP180;53212;52.112;5.144;2023-03-01T11:16:48;102812.00;;;4.98
66403;BMP180;53212;52.112;5.144;2023-03-01T11:19:19;102803.80;;;5.02
66403;BMP180;53212;52.112;5.144;2023-03-01T11:22:01;102800.20;;;5.10
66403;BMP180;53212;52.112;5.144;2023-03-01T11:27:31;102803.60;;;5.20
66403;BMP180;53212;52.112;5.144;2023-03-01T11:30:03;102802.20;;;5.30
66403;BMP180;53212;52.112;5.144;2023-03-01T11:35:35;102801.00;;;5.40
66403;BMP180;53212;52.112;5.144;2023-03-01T11:38:26;102796.40;;;5.40
66403;BMP180;53212;52.112;5.144;2023-03-01T11:41:01;102794.60;;;5.50
66403;BMP180;53212;52.112;5.144;2023-03-01T11:43:57;102790.00;;;5.50
66403;BMP180;53212;52.112;5.144;2023-03-01T11:46:58;102788.40;;;5.60
66403;BMP180;53212;52.112;5.144;2023-03-01T11:49:43;102789.80;;;5.70
66403;BMP180;53212;52.112;5.144;2023-03-01T11:52:33;102783.40;;;5.80
66403;BMP180;53212;52.112;5.144;2023-03-01T12:07:34;102781.20;;;6.10
66403;BMP180;53212;52.112;5.144;2023-03-01T12:10:35;102776.60;;;6.20
66403;BMP180;53212;52.112;5.144;2023-03-01T12:13:22;102775.40;;;6.20
66403;BMP180;53212;52.112;5.144;2023-03-01T12:19:39;102764.20;;;6.40
66403;BMP180;53212;52.112;5.144;2023-03-01T12:31:08;102752.60;;;6.60
66403;BMP180;53212;52.112;5.144;2023-03-01T12:33:53;102752.40;;;6.60
66403;BMP180;53212;52.112;5.144;2023-03-01T12:39:26;102758.00;;;6.70
66403;BMP180;53212;52.112;5.144;2023-03-01T12:42:31;102751.20;;;6.80
66403;BMP180;53212;52.112;5.144;2023-03-01T12:45:35;102748.60;;;6.90
66403;BMP180;53212;52.112;5.144;2023-03-01T12:48:25;102747.80;;;7.00
66403;BMP180;53212;52.112;5.144;2023-03-01T12:50:59;102743.00;;;7.00
66403;BMP180;53212;52.112;5.144;2023-03-01T12:53:28;102738.20;;;7.00
66403;BMP180;53212;52.112;5.144;2023-03-01T12:56:00;102735.40;;;7.00
66403;BMP180;53212;52.112;5.144;2023-03-01T12:59:18;102725.40;;;7.00
66403;BMP180;53212;52.112;5.144;2023-03-01T13:02:19;102725.80;;;7.10
66403;BMP180;53212;52.112;5.144;2023-03-01T13:10:47;102723.00;;;7.30
66403;BMP180;53212;52.112;5.144;2023-03-01T13:13:21;102717.00;;;7.30
66403;BMP180;53212;52.112;5.144;2023-03-01T13:15:49;102714.60;;;7.32
66403;BMP180;53212;52.112;5.144;2023-03-01T13:29:00;102691.20;;;7.50
66403;BMP180;53212;52.112;5.144;2023-03-01T13:33:56;102681.80;;;7.50
66403;BMP180;53212;52.112;5.144;2023-03-01T13:46:50;102663.80;;;7.68
66403;BMP180;53212;52.112;5.144;2023-03-01T13:49:20;102669.20;;;7.70
66403;BMP180;53212;52.112;5.144;2023-03-01T13:51:50;102656.40;;;7.70
66403;BMP180;53212;52.112;5.144;2023-03-01T13:54:32;102655.80;;;7.80
66403;BMP180;53212;52.112;5.144;2023-03-01T13:57:00;102648.20;;;7.80
66403;BMP180;53212;52.112;5.144;2023-03-01T13:59:27;102648.60;;;7.80
66403;BMP180;53212;52.112;5.144;2023-03-01T14:02:00;102641.60;;;7.80
66403;BMP180;53212;52.112;5.144;2023-03-01T14:04:31;102634.80;;;7.80
66403;BMP180;53212;52.112;5.144;2023-03-01T14:07:22;102631.60;;;7.80
66403;BMP180;53212;52.112;5.144;2023-03-01T14:09:58;102632.40;;;7.88
66403;BMP180;53212;52.112;5.144;2023-03-01T14:18:29;102625.20;;;7.90
66403;BMP180;53212;52.112;5.144;2023-03-01T14:20:57;102614.40;;;7.90
66403;BMP180;53212;52.112;5.144;2023-03-01T14:23:23;102614.00;;;8.00
66403;BMP180;53212;52.112;5.144;2023-03-01T14:25:57;102608.20;;;8.00
66403;BMP180;53212;52.112;5.144;2023-03-01T14:28:31;102606.20;;;8.00
66403;BMP180;53212;52.112;5.144;2023-03-01T14:31:00;102599.60;;;8.10
66403;BMP180;53212;52.112;5.144;2023-03-01T14:33:33;102598.60;;;8.10
66403;BMP180;53212;52.112;5.144;2023-03-01T14:36:12;102596.20;;;8.18
66403;BMP180;53212;52.112;5.144;2023-03-01T14:38:43;102582.60;;;8.20
66403;BMP180;53212;52.112;5.144;2023-03-01T14:41:21;102585.80;;;8.20
66403;BMP180;53212;52.112;5.144;2023-03-01T14:43:58;102578.60;;;8.20
66403;BMP180;53212;52.112;5.144;2023-03-01T14:46:29;102575.40;;;8.20
66403;BMP180;53212;52.112;5.144;2023-03-01T14:49:02;102577.60;;;8.10
66403;BMP180;53212;52.112;5.144;2023-03-01T14:51:28;102584.20;;;8.10
66403;BMP180;53212;52.112;5.144;2023-03-01T14:53:55;102586.40;;;8.10
66403;BMP180;53212;52.112;5.144;2023-03-01T14:56:21;102584.40;;;8.10
66403;BMP180;53212;52.112;5.144;2023-03-01T14:58:51;102590.80;;;8.10
66403;BMP180;53212;52.112;5.144;2023-03-01T15:01:18;102592.20;;;8.10
66403;BMP180;53212;52.112;5.144;2023-03-01T15:03:48;102585.40;;;8.12
66403;BMP180;53212;52.112;5.144;2023-03-01T15:06:20;102585.20;;;8.10
66403;BMP180;53212;52.112;5.144;2023-03-01T15:08:51;102572.60;;;8.08
66403;BMP180;53212;52.112;5.144;2023-03-01T15:11:23;102572.80;;;8.04
66403;BMP180;53212;52.112;5.144;2023-03-01T15:13:51;102565.60;;;8.10
66403;BMP180;53212;52.112;5.144;2023-03-01T15:16:32;102571.80;;;8.14
66403;BMP180;53212;52.112;5.144;2023-03-01T15:19:06;102566.80;;;8.20
66403;BMP180;53212;52.112;5.144;2023-03-01T15:21:38;102565.60;;;8.20
66403;BMP180;53212;52.112;5.144;2023-03-01T15:24:26;102562.60;;;8.28
66403;BMP180;53212;52.112;5.144;2023-03-01T15:27:00;102561.80;;;8.24
66403;BMP180;53212;52.112;5.144;2023-03-01T15:29:32;102560.20;;;8.20
66403;BMP180;53212;52.112;5.144;2023-03-01T15:32:29;102556.00;;;8.20
66403;BMP180;53212;52.112;5.144;2023-03-01T15:35:00;102555.40;;;8.14
66403;BMP180;53212;52.112;5.144;2023-03-01T15:37:46;102551.00;;;8.10
66403;BMP180;53212;52.112;5.144;2023-03-01T15:40:27;102548.20;;;8.00
66403;BMP180;53212;52.112;5.144;2023-03-01T15:43:05;102547.80;;;8.00